Time;durP1;ratioP1;P1;durP2;ratioP2;P2;SDS_P1;SDS_P2;PMS_P1;PMS_P2;Temp;Humidity;BMP_temperature;BMP_pressure;BME280_temperature;BME280_humidity;BME280_pressure;Samples;Min_cycle;Max_cycle;Signal;HPM_P1;HPM_P2
2023/04/24 00:02:15;;;;;;;4.07;1.70;;;11.10;99.90;;;;;;5082117;28;20032;-80
2023/04/24 00:04:44;;;;;;;0.30;0.30;;;11.10;99.90;;;;;;5082615;28;20450;-79
2023/04/24 00:07:11;;;;;;;1.73;0.25;;;11.00;99.90;;;;;;5082246;28;20526;-81
2023/04/24 00:09:37;;;;;;;0.25;0.25;;;11.00;99.90;;;;;;5081492;28;20541;-79
2023/04/24 00:12:05;;;;;;;6.20;2.13;;;11.00;99.90;;;;;;5082507;28;20038;-78
2023/04/24 00:14:31;;;;;;;1.65;1.45;;;11.00;99.90;;;;;;5081861;28;20060;-78
2023/04/24 00:16:57;;;;;;;0.10;0.10;;;11.00;99.90;;;;;;5082378;28;20139;-79
2023/04/24 00:19:23;;;;;;;0.55;0.55;;;11.00;99.90;;;;;;5082012;28;20028;-78
2023/04/24 00:21:51;;;;;;;0.32;0.32;;;11.00;99.90;;;;;;5082635;28;20077;-78
2023/04/24 00:24:18;;;;;;;6.82;1.65;;;11.00;99.90;;;;;;5075956;28;20036;-79
2023/04/24 00:26:43;;;;;;;0.10;0.10;;;11.10;99.90;;;;;;5082700;28;20039;-79
2023/04/24 00:29:09;;;;;;;3.72;1.95;;;11.10;99.90;;;;;;5082007;28;20040;-78
2023/04/24 00:31:35;;;;;;;0.20;0.20;;;11.00;99.90;;;;;;5084704;28;20032;-78
2023/04/24 00:34:04;;;;;;;0.10;0.10;;;11.00;99.90;;;;;;5079208;28;20092;-78
2023/04/24 00:36:30;;;;;;;0.70;0.68;;;11.00;99.90;;;;;;5082728;28;20040;-78
2023/04/24 00:38:56;;;;;;;0.60;0.60;;;11.00;99.90;;;;;;5080345;28;20559;-78
2023/04/24 00:41:24;;;;;;;15.60;1.60;;;11.00;99.90;;;;;;5082024;28;20027;-78
2023/04/24 00:43:50;;;;;;;0.10;0.10;;;10.90;99.90;;;;;;5069993;28;20820;-78
2023/04/24 00:46:16;;;;;;;0.00;0.00;;;10.90;99.90;;;;;;5081405;28;20099;-78
2023/04/24 00:48:43;;;;;;;0.10;0.10;;;10.90;99.90;;;;;;5075513;28;20099;-76
2023/04/24 00:51:09;;;;;;;0.15;0.15;;;10.90;99.90;;;;;;5075366;28;20036;-77
2023/04/24 00:53:35;;;;;;;0.32;0.32;;;10.90;99.90;;;;;;5081977;28;20028;-77
2023/04/24 00:56:01;;;;;;;24.00;0.75;;;10.90;99.90;;;;;;5081697;28;20035;-77
2023/04/24 00:58:28;;;;;;;0.10;0.10;;;10.90;99.90;;;;;;5079887;28;20036;-77
2023/04/24 01:00:55;;;;;;;0.10;0.10;;;10.90;99.90;;;;;;5081414;28;20042;-77
2023/04/24 01:03:24;;;;;;;0.40;0.40;;;10.90;99.90;;;;;;5081082;28;20028;-76
2023/04/24 01:05:50;;;;;;;0.00;0.00;;;10.90;99.90;;;;;;5081802;28;20065;-77
2023/04/24 01:08:16;;;;;;;0.10;0.10;;;10.70;99.90;;;;;;5080921;28;20020;-77
2023/04/24 01:10:44;;;;;;;0.10;0.10;;;10.80;99.90;;;;;;5078009;28;20025;-78
2023/04/24 01:13:10;;;;;;;0.47;0.47;;;10.80;99.90;;;;;;5079910;28;20044;-77
2023/04/24 01:15:36;;;;;;;0.10;0.10;;;11.00;99.90;;;;;;5076253;28;20032;-77
2023/04/24 01:18:03;;;;;;;0.30;0.30;;;11.00;99.90;;;;;;5081447;28;20032;-76
2023/04/24 01:20:29;;;;;;;0.80;0.75;;;11.10;99.90;;;;;;5080878;28;20478;-76
2023/04/24 01:22:57;;;;;;;0.20;0.20;;;11.00;99.90;;;;;;5077998;28;20056;-77
2023/04/24 01:25:24;;;;;;;0.50;0.28;;;10.90;99.90;;;;;;5080975;28;20037;-79
2023/04/24 01:27:51;;;;;;;0.10;0.10;;;10.80;99.90;;;;;;5080723;28;20036;-78
2023/04/24 01:30:16;;;;;;;1.23;1.02;;;10.80;99.90;;;;;;5080504;28;20028;-78
2023/04/24 01:32:44;;;;;;;0.20;0.20;;;10.70;99.90;;;;;;5084026;28;20033;-78
2023/04/24 01:35:10;;;;;;;0.20;0.20;;;10.60;99.90;;;;;;5080535;28;20091;-78
2023/04/24 01:37:37;;;;;;;0.30;0.30;;;10.50;99.90;;;;;;5080681;28;20111;-79
2023/04/24 01:40:06;;;;;;;0.15;0.15;;;10.60;99.90;;;;;;5079154;28;20114;-77
2023/04/24 01:42:34;;;;;;;2.40;1.13;;;10.70;99.90;;;;;;5081555;28;20036;-77
2023/04/24 01:45:01;;;;;;;1.23;1.17;;;10.60;99.90;;;;;;5080375;28;20121;-77
2023/04/24 01:47:27;;;;;;;0.38;0.38;;;10.60;99.90;;;;;;5072851;28;20032;-77
2023/04/24 01:49:53;;;;;;;3.78;1.65;;;10.60;99.90;;;;;;5080840;28;20073;-78
2023/04/24 01:52:19;;;;;;;5.93;1.20;;;10.70;99.90;;;;;;5080606;28;20036;-79
2023/04/24 01:54:45;;;;;;;0.10;0.10;;;10.70;99.90;;;;;;5078927;28;20036;-79
2023/04/24 01:57:11;;;;;;;0.38;0.17;;;10.80;99.90;;;;;;5078799;28;20056;-80
2023/04/24 01:59:37;;;;;;;0.52;0.52;;;10.80;99.90;;;;;;5081723;28;20067;-80
2023/04/24 02:02:03;;;;;;;0.10;0.10;;;10.80;99.90;;;;;;5084610;28;20028;-82
2023/04/24 02:04:29;;;;;;;0.15;0.15;;;10.80;99.90;;;;;;5083373;28;20032;-80
2023/04/24 02:06:55;;;;;;;0.30;0.30;;;10.60;99.90;;;;;;5083222;28;20027;-79
2023/04/24 02:09:21;;;;;;;3.58;0.95;;;10.60;99.90;;;;;;5083110;28;20035;-79
2023/04/24 02:11:46;;;;;;;4.47;1.48;;;10.60;99.90;;;;;;5081041;28;20471;-79
2023/04/24 02:14:12;;;;;;;0.38;0.38;;;10.60;99.90;;;;;;5083903;28;20027;-79
2023/04/24 02:16:38;;;;;;;0.10;0.10;;;10.60;99.90;;;;;;5082911;28;20471;-82
2023/04/24 02:19:04;;;;;;;3.53;1.02;;;10.70;99.90;;;;;;5084058;28;20028;-78
2023/04/24 02:21:30;;;;;;;5.57;1.80;;;10.80;99.90;;;;;;5084820;28;20044;-78
2023/04/24 02:23:56;;;;;;;0.30;0.30;;;10.70;99.90;;;;;;5084581;28;20518;-78
2023/04/24 02:26:22;;;;;;;0.10;0.10;;;10.70;99.90;;;;;;5084751;28;20119;-79
2023/04/24 02:28:48;;;;;;;0.10;0.10;;;10.70;99.90;;;;;;5082301;28;20036;-79
2023/04/24 02:31:14;;;;;;;0.10;0.10;;;10.60;99.90;;;;;;5087316;28;20027;-78
2023/04/24 02:33:40;;;;;;;0.03;0.03;;;10.60;99.90;;;;;;5084836;28;20068;-78
2023/04/24 02:36:05;;;;;;;0.10;0.10;;;10.60;99.90;;;;;;5084503;28;20043;-78
2023/04/24 02:38:31;;;;;;;0.80;0.80;;;10.60;99.90;;;;;;5084547;28;20047;-78
2023/04/24 02:40:57;;;;;;;0.10;0.10;;;10.60;99.90;;;;;;5084695;28;20829;-78
2023/04/24 02:43:22;;;;;;;0.03;0.03;;;10.70;99.90;;;;;;5084156;28;20035;-79
2023/04/24 02:45:48;;;;;;;0.20;0.20;;;10.70;99.90;;;;;;5083916;28;20107;-79
2023/04/24 02:48:14;;;;;;;0.40;0.40;;;10.70;99.90;;;;;;5081366;28;20032;-78
2023/04/24 02:50:40;;;;;;;0.10;0.10;;;10.70;99.90;;;;;;5085702;28;20035;-77
2023/04/24 02:53:06;;;;;;;0.10;0.10;;;10.60;99.90;;;;;;5084364;28;20028;-78
2023/04/24 02:55:32;;;;;;;0.75;0.75;;;10.80;99.90;;;;;;5083982;28;20020;-79
2023/04/24 02:57:57;;;;;;;0.03;0.03;;;10.80;99.90;;;;;;5083167;28;20092;-78
2023/04/24 03:00:23;;;;;;;0.10;0.10;;;10.80;99.90;;;;;;5082508;28;20059;-79
2023/04/24 03:02:49;;;;;;;0.10;0.10;;;10.80;99.90;;;;;;5083101;28;20469;-77
2023/04/24 03:05:15;;;;;;;0.10;0.10;;;10.80;99.90;;;;;;5084070;28;20023;-78
2023/04/24 03:07:41;;;;;;;9.25;1.55;;;10.80;99.90;;;;;;5082624;28;20036;-78
2023/04/24 03:10:07;;;;;;;0.13;0.13;;;10.90;99.90;;;;;;5075717;28;20107;-78
2023/04/24 03:12:33;;;;;;;0.05;0.05;;;10.90;99.90;;;;;;5083722;28;20028;-79
2023/04/24 03:14:59;;;;;;;1.90;0.73;;;10.90;99.90;;;;;;5083476;28;20076;-78
2023/04/24 03:17:24;;;;;;;0.27;0.27;;;10.90;99.90;;;;;;5083361;28;20077;-78
2023/04/24 03:19:50;;;;;;;0.52;0.52;;;10.90;99.90;;;;;;5081856;28;20437;-77
2023/04/24 03:22:16;;;;;;;0.10;0.10;;;11.00;99.90;;;;;;5083477;28;20082;-78
2023/04/24 03:24:41;;;;;;;0.47;0.47;;;11.00;99.90;;;;;;5083501;28;20031;-78
2023/04/24 03:27:07;;;;;;;0.20;0.20;;;10.80;99.90;;;;;;5083334;28;20036;-81
2023/04/24 03:29:33;;;;;;;0.20;0.20;;;10.90;99.90;;;;;;5083047;28;20076;-81
2023/04/24 03:31:59;;;;;;;0.05;0.05;;;10.80;99.90;;;;;;5083434;28;20446;-82
2023/04/24 03:34:24;;;;;;;0.30;0.30;;;10.80;99.90;;;;;;5083087;28;20060;-80
2023/04/24 03:36:50;;;;;;;0.10;0.10;;;10.80;99.90;;;;;;5083126;28;20040;-81
2023/04/24 03:39:16;;;;;;;2.63;0.65;;;10.80;99.90;;;;;;5083637;28;20036;-82
2023/04/24 03:41:42;;;;;;;0.10;0.10;;;10.70;99.90;;;;;;5083124;28;20036;-81
2023/04/24 03:44:07;;;;;;;0.10;0.10;;;10.70;99.90;;;;;;5079459;28;20494;-81
2023/04/24 03:46:33;;;;;;;0.10;0.10;;;10.20;99.90;;;;;;5081471;28;20028;-81
2023/04/24 03:48:59;;;;;;;0.10;0.10;;;9.90;99.90;;;;;;5079845;28;20079;-81
2023/04/24 03:51:25;;;;;;;0.10;0.10;;;9.80;99.90;;;;;;5081600;28;20035;-80
2023/04/24 03:53:50;;;;;;;0.10;0.10;;;9.60;99.90;;;;;;5080269;28;20024;-81
2023/04/24 03:56:16;;;;;;;0.10;0.10;;;9.60;99.90;;;;;;5075639;28;20061;-78
2023/04/24 03:58:42;;;;;;;0.52;0.47;;;9.80;99.90;;;;;;5082809;28;20028;-80
2023/04/24 04:01:08;;;;;;;1.27;0.60;;;9.90;99.90;;;;;;5082434;28;20036;-81
2023/04/24 04:03:33;;;;;;;0.10;0.10;;;10.20;99.90;;;;;;5080443;28;20587;-80
2023/04/24 04:05:59;;;;;;;1.02;0.95;;;10.20;99.90;;;;;;5083214;28;20055;-79
2023/04/24 04:08:25;;;;;;;0.25;0.25;;;10.20;99.90;;;;;;5081186;28;20081;-81
2023/04/24 04:10:51;;;;;;;0.10;0.10;;;10.20;99.90;;;;;;5082515;28;20028;-79
2023/04/24 04:13:16;;;;;;;0.10;0.10;;;10.20;99.90;;;;;;5082056;28;20027;-79
2023/04/24 04:15:43;;;;;;;0.30;0.30;;;10.20;99.90;;;;;;5082458;28;20561;-80
2023/04/24 04:18:08;;;;;;;2.75;2.08;;;10.20;99.90;;;;;;5082340;28;20024;-81
2023/04/24 04:20:34;;;;;;;0.10;0.10;;;10.10;99.90;;;;;;5075673;28;20040;-79
2023/04/24 04:23:00;;;;;;;0.00;0.00;;;10.10;99.90;;;;;;5081921;28;20632;-80
2023/04/24 04:25:25;;;;;;;0.10;0.10;;;10.10;99.90;;;;;;5082778;28;20028;-78
2023/04/24 04:27:52;;;;;;;3.80;1.10;;;10.00;99.90;;;;;;5082799;28;20032;-78
2023/04/24 04:30:18;;;;;;;2.23;1.03;;;9.70;99.90;;;;;;5083436;28;20028;-78
2023/04/24 04:32:44;;;;;;;0.77;0.77;;;9.40;99.90;;;;;;5085934;28;20031;-80
2023/04/24 04:35:09;;;;;;;0.17;0.17;;;9.20;99.90;;;;;;5082706;28;20127;-78
2023/04/24 04:37:35;;;;;;;0.10;0.10;;;9.10;99.90;;;;;;5081706;28;20573;-80
2023/04/24 04:40:06;;;;;;;2.20;1.60;;;9.00;99.90;;;;;;5081786;28;20036;-78
2023/04/24 04:42:32;;;;;;;0.10;0.10;;;9.00;99.90;;;;;;5080293;28;20038;-79
2023/04/24 04:44:58;;;;;;;0.10;0.10;;;9.00;99.90;;;;;;5081860;28;20032;-78
2023/04/24 04:47:24;;;;;;;0.45;0.45;;;9.00;99.90;;;;;;5081559;28;20343;-78
2023/04/24 04:49:51;;;;;;;0.10;0.10;;;9.00;99.90;;;;;;5081517;28;20400;-78
2023/04/24 04:52:17;;;;;;;0.10;0.10;;;9.10;99.90;;;;;;5081057;28;20110;-78
2023/04/24 04:54:43;;;;;;;0.10;0.10;;;9.20;99.90;;;;;;5076073;28;20170;-77
2023/04/24 04:57:08;;;;;;;0.25;0.25;;;9.20;99.90;;;;;;5079935;28;20450;-78
2023/04/24 04:59:34;;;;;;;0.10;0.10;;;9.10;99.90;;;;;;5081028;28;20116;-78
2023/04/24 05:02:00;;;;;;;0.28;0.28;;;9.00;99.90;;;;;;5079129;28;20609;-77
2023/04/24 05:04:26;;;;;;;0.30;0.30;;;9.00;99.90;;;;;;5076652;28;20126;-79
2023/04/24 05:06:52;;;;;;;0.28;0.28;;;9.20;99.90;;;;;;5077529;28;20070;-78
2023/04/24 05:09:18;;;;;;;0.30;0.30;;;9.20;99.90;;;;;;5068765;28;20028;-79
2023/04/24 05:11:44;;;;;;;0.10;0.10;;;9.30;99.90;;;;;;5072467;28;20097;-80
2023/04/24 05:14:10;;;;;;;0.20;0.20;;;9.40;99.90;;;;;;5071236;28;20311;-80
2023/04/24 05:16:37;;;;;;;0.55;0.47;;;9.40;99.90;;;;;;5073283;28;20032;-80
2023/04/24 05:19:02;;;;;;;0.22;0.22;;;9.70;99.90;;;;;;5077013;28;20024;-79
2023/04/24 05:21:29;;;;;;;0.25;0.25;;;9.70;99.90;;;;;;5079967;28;20109;-79
2023/04/24 05:23:55;;;;;;;0.15;0.15;;;9.80;99.90;;;;;;5066269;28;20020;-79
2023/04/24 05:26:20;;;;;;;0.10;0.10;;;9.90;99.90;;;;;;5075470;28;20550;-80
2023/04/24 05:28:46;;;;;;;0.52;0.52;;;9.90;99.90;;;;;;5075399;28;20028;-79
2023/04/24 05:31:12;;;;;;;0.30;0.30;;;10.00;99.90;;;;;;5065807;28;20421;-81
2023/04/24 05:33:38;;;;;;;0.10;0.10;;;9.70;99.90;;;;;;5081977;28;20035;-83
2023/04/24 05:36:05;;;;;;;0.10;0.10;;;9.60;99.90;;;;;;5085166;28;20048;-83
2023/04/24 05:38:31;;;;;;;0.30;0.30;;;9.60;99.90;;;;;;5082090;28;20051;-82
2023/04/24 05:40:56;;;;;;;0.20;0.20;;;9.70;99.90;;;;;;5084433;28;20771;-81
2023/04/24 05:43:22;;;;;;;0.30;0.30;;;9.70;99.90;;;;;;5084635;28;20077;-82
2023/04/24 05:45:48;;;;;;;0.32;0.32;;;9.80;99.90;;;;;;5084787;28;20467;-80
2023/04/24 05:48:13;;;;;;;5.43;1.17;;;10.20;99.90;;;;;;5085904;28;20036;-82
2023/04/24 05:50:39;;;;;;;0.30;0.30;;;11.30;99.90;;;;;;5085070;28;20092;-82
2023/04/24 05:53:06;;;;;;;0.40;0.40;;;11.50;99.90;;;;;;5084954;28;20330;-82
2023/04/24 05:55:32;;;;;;;0.10;0.10;;;11.70;99.90;;;;;;5085074;28;20040;-82
2023/04/24 05:57:58;;;;;;;3.25;2.95;;;12.00;99.90;;;;;;5085123;28;20032;-82
2023/04/24 06:00:24;;;;;;;7.25;3.70;;;12.30;99.90;;;;;;5084509;28;20044;-80
2023/04/24 06:02:51;;;;;;;3.05;2.65;;;12.20;99.90;;;;;;5082972;28;20479;-83
2023/04/24 06:05:17;;;;;;;1.02;1.02;;;13.00;99.90;;;;;;5085472;28;20028;-83
2023/04/24 06:07:43;;;;;;;2.90;2.60;;;12.00;99.90;;;;;;5083387;28;20052;-83
2023/04/24 06:10:09;;;;;;;2.15;2.05;;;11.60;99.90;;;;;;5085104;28;20059;-85
2023/04/24 06:12:36;;;;;;;0.38;0.38;;;11.50;99.90;;;;;;5081479;28;20028;-84
2023/04/24 06:15:02;;;;;;;0.32;0.32;;;11.30;99.90;;;;;;5084540;28;20032;-82
2023/04/24 06:17:27;;;;;;;0.10;0.10;;;11.00;99.90;;;;;;5082596;28;20043;-84
2023/04/24 06:19:53;;;;;;;7.77;5.70;;;10.70;99.90;;;;;;5083868;28;20821;-84
2023/04/24 06:22:19;;;;;;;6.75;6.05;;;10.70;99.90;;;;;;5081079;28;20047;-81
2023/04/24 06:24:44;;;;;;;4.35;2.67;;;10.60;99.90;;;;;;5084008;28;20062;-81
2023/04/24 06:27:10;;;;;;;0.40;0.40;;;10.60;99.90;;;;;;5084960;28;20043;-81
2023/04/24 06:29:36;;;;;;;0.20;0.20;;;10.50;99.90;;;;;;5082538;28;20110;-80
2023/04/24 06:32:02;;;;;;;0.20;0.20;;;10.60;99.90;;;;;;5083274;28;20036;-80
2023/04/24 06:34:27;;;;;;;3.65;1.42;;;10.80;99.90;;;;;;5084903;28;20471;-80
2023/04/24 06:36:54;;;;;;;0.17;0.17;;;10.70;99.90;;;;;;5084741;28;20031;-80
2023/04/24 06:39:20;;;;;;;0.40;0.40;;;10.80;99.90;;;;;;5084691;28;20028;-80
2023/04/24 06:41:46;;;;;;;0.08;0.08;;;11.00;99.90;;;;;;5084675;28;20028;-80
2023/04/24 06:44:11;;;;;;;0.00;0.00;;;11.30;99.90;;;;;;5083698;28;20067;-80
2023/04/24 06:46:37;;;;;;;0.38;0.38;;;11.60;99.90;;;;;;5082859;28;20035;-79
2023/04/24 06:49:03;;;;;;;0.20;0.20;;;11.50;99.90;;;;;;5083663;28;20032;-80
2023/04/24 06:51:28;;;;;;;0.30;0.30;;;12.20;99.90;;;;;;5084331;28;20048;-80
2023/04/24 06:53:55;;;;;;;0.90;0.88;;;12.00;99.90;;;;;;5084281;28;20023;-80
2023/04/24 06:56:22;;;;;;;0.93;0.93;;;12.20;99.90;;;;;;5083794;28;20054;-78
2023/04/24 06:58:47;;;;;;;0.25;0.25;;;12.50;99.90;;;;;;5084531;28;20082;-80
2023/04/24 07:01:13;;;;;;;0.50;0.50;;;12.60;99.90;;;;;;5083556;28;20457;-80
2023/04/24 07:03:39;;;;;;;0.00;0.00;;;12.90;99.90;;;;;;5082991;28;20036;-79
2023/04/24 07:06:05;;;;;;;0.00;0.00;;;12.80;99.90;;;;;;5084705;28;20024;-80
2023/04/24 07:08:32;;;;;;;0.03;0.03;;;13.40;99.90;;;;;;5084548;28;20039;-80
2023/04/24 07:10:58;;;;;;;3.40;1.13;;;13.30;99.90;;;;;;5084149;28;20441;-79
2023/04/24 07:13:24;;;;;;;0.77;0.77;;;13.00;99.90;;;;;;5083908;28;20398;-79
2023/04/24 07:15:52;;;;;;;0.10;0.10;;;12.50;99.90;;;;;;5083944;28;20035;-80
2023/04/24 07:18:18;;;;;;;0.55;0.55;;;13.50;99.90;;;;;;5082364;28;20036;-80
2023/04/24 07:20:44;;;;;;;0.57;0.57;;;13.70;99.90;;;;;;5083921;28;20065;-80
2023/04/24 07:23:10;;;;;;;0.25;0.25;;;13.60;99.90;;;;;;5083916;28;20442;-80
2023/04/24 07:25:36;;;;;;;0.20;0.17;;;13.60;99.90;;;;;;5081703;28;20039;-80
2023/04/24 07:28:02;;;;;;;0.10;0.10;;;14.40;99.90;;;;;;5083674;28;20039;-79
2023/04/24 07:30:32;;;;;;;0.10;0.10;;;15.00;99.90;;;;;;5082233;28;20028;-80
2023/04/24 07:32:58;;;;;;;0.28;0.28;;;15.90;99.90;;;;;;5083503;28;20032;-80
2023/04/24 07:35:25;;;;;;;0.10;0.10;;;15.90;99.90;;;;;;5083009;28;20126;-80
2023/04/24 07:37:51;;;;;;;;;;;14.40;99.90;;;;;;5083786;28;20336;-80
2023/04/24 07:40:17;;;;;;;0.15;0.15;;;14.00;99.90;;;;;;5081605;28;19968;-82
2023/04/24 07:42:43;;;;;;;0.27;0.27;;;13.60;99.90;;;;;;5083520;28;20028;-80
2023/04/24 07:45:09;;;;;;;6.97;0.57;;;13.40;99.90;;;;;;5082925;28;20048;-78
2023/04/24 07:47:36;;;;;;;0.87;0.83;;;14.80;99.90;;;;;;5083528;28;20131;-80
2023/04/24 07:50:02;;;;;;;0.00;0.00;;;13.80;99.90;;;;;;5083362;28;20575;-79
2023/04/24 07:52:28;;;;;;;0.83;0.73;;;18.30;98.30;;;;;;5083371;28;20024;-79
2023/04/24 07:54:58;;;;;;;0.63;0.63;;;16.50;97.10;;;;;;5083543;28;20516;-80
2023/04/24 07:57:24;;;;;;;0.10;0.10;;;20.50;93.10;;;;;;5081609;28;20391;-80
2023/04/24 07:59:50;;;;;;;0.68;0.43;;;21.00;89.60;;;;;;5082762;28;20028;-80
2023/04/24 08:02:16;;;;;;;0.00;0.00;;;21.60;81.30;;;;;;5083310;28;20750;-80
2023/04/24 08:04:42;;;;;;;0.30;0.30;;;17.50;91.50;;;;;;5082587;28;20323;-80
2023/04/24 08:07:08;;;;;;;0.10;0.10;;;15.30;96.10;;;;;;5082957;28;20031;-79
2023/04/24 08:09:33;;;;;;;0.03;0.03;;;14.60;99.10;;;;;;5082758;28;20078;-80
2023/04/24 08:11:59;;;;;;;0.30;0.27;;;16.90;98.20;;;;;;5078459;28;20031;-79
2023/04/24 08:14:25;;;;;;;1.43;0.83;;;21.80;87.70;;;;;;5082346;28;20031;-80
2023/04/24 08:16:53;;;;;;;1.70;0.47;;;19.30;84.40;;;;;;5082997;28;20039;-80
2023/04/24 08:19:19;;;;;;;0.28;0.28;;;19.70;90.00;;;;;;5080742;28;20031;-80
2023/04/24 08:21:45;;;;;;;0.20;0.20;;;23.40;77.90;;;;;;5082934;28;20523;-79
2023/04/24 08:24:10;;;;;;;0.00;0.00;;;24.30;70.40;;;;;;5083124;28;20071;-80
2023/04/24 08:26:36;;;;;;;1.30;0.77;;;25.00;67.10;;;;;;5078152;28;20075;-81
2023/04/24 08:29:02;;;;;;;0.38;0.38;;;24.60;66.60;;;;;;5082983;28;20391;-79
2023/04/24 08:31:27;;;;;;;0.20;0.20;;;26.20;63.10;;;;;;5092331;28;20473;-79
2023/04/24 08:33:53;;;;;;;0.68;0.68;;;20.10;69.80;;;;;;5083816;28;20587;-80
2023/04/24 08:36:19;;;;;;;2.63;2.43;;;17.60;80.00;;;;;;5082462;28;20027;-80
2023/04/24 08:38:46;;;;;;;3.00;2.80;;;16.60;82.10;;;;;;5082632;28;20621;-80
2023/04/24 08:41:15;;;;;;;1.40;1.30;;;16.50;83.80;;;;;;5082975;28;20510;-79
2023/04/24 08:43:41;;;;;;;0.45;0.45;;;15.30;86.40;;;;;;5082862;28;20795;-79
2023/04/24 08:46:07;;;;;;;0.55;0.55;;;16.90;80.60;;;;;;5082472;28;20562;-79
2023/04/24 08:48:33;;;;;;;0.20;0.20;;;22.40;71.50;;;;;;5079385;28;20036;-80
2023/04/24 08:50:59;;;;;;;3.00;1.17;;;23.70;67.50;;;;;;5082935;28;20403;-80
2023/04/24 08:53:26;;;;;;;1.13;0.82;;;25.40;64.30;;;;;;5082007;28;20028;-80
2023/04/24 08:55:52;;;;;;;0.40;0.40;;;24.10;60.00;;;;;;5082686;28;20020;-80
2023/04/24 08:58:19;;;;;;;0.30;0.30;;;23.40;60.60;;;;;;5082000;28;20024;-80
2023/04/24 09:00:46;;;;;;;1.98;1.17;;;18.90;68.80;;;;;;5082185;28;20161;-80
2023/04/24 09:03:15;;;;;;;0.20;0.20;;;17.00;76.10;;;;;;5082442;28;20038;-80
2023/04/24 09:05:45;;;;;;;0.17;0.17;;;15.70;79.00;;;;;;5082469;28;20508;-80
2023/04/24 09:08:13;;;;;;;0.00;0.00;;;18.70;77.30;;;;;;5080806;28;20340;-80
2023/04/24 09:10:39;;;;;;;0.38;0.38;;;22.60;65.60;;;;;;5082512;28;20027;-80
2023/04/24 09:13:05;;;;;;;0.08;0.08;;;19.80;70.40;;;;;;5082061;28;20020;-79
2023/04/24 09:15:32;;;;;;;0.10;0.10;;;20.20;69.60;;;;;;5081735;28;20028;-80
2023/04/24 09:17:58;;;;;;;0.10;0.10;;;17.50;72.30;;;;;;5082123;28;20102;-80
2023/04/24 09:20:23;;;;;;;0.67;0.67;;;21.30;68.90;;;;;;5078549;28;20036;-80
2023/04/24 09:22:55;;;;;;;0.30;0.30;;;22.30;65.40;;;;;;5081783;28;20024;-80
2023/04/24 09:25:21;;;;;;;0.30;0.30;;;22.80;64.40;;;;;;5079347;28;20043;-80
2023/04/24 09:27:47;;;;;;;1.38;0.47;;;22.30;65.40;;;;;;5082139;28;20032;-81
2023/04/24 09:30:13;;;;;;;0.47;0.47;;;23.40;62.10;;;;;;5081103;28;20098;-80
2023/04/24 09:32:40;;;;;;;0.25;0.25;;;22.60;57.80;;;;;;5093595;28;20066;-81
2023/04/24 09:35:09;;;;;;;0.43;0.43;;;24.50;59.70;;;;;;5081902;28;20128;-80
2023/04/24 09:37:37;;;;;;;0.22;0.22;;;25.70;59.50;;;;;;5081949;28;20161;-81
2023/04/24 09:40:17;;;;;;;0.30;0.30;;;22.70;57.00;;;;;;5081391;28;20550;-81
2023/04/24 09:42:54;;;;;;;0.40;0.40;;;20.40;63.90;;;;;;5081726;28;20024;-81
2023/04/24 09:45:20;;;;;;;1.15;1.05;;;20.60;62.90;;;;;;5081517;28;20027;-80
2023/04/24 09:47:46;;;;;;;0.00;0.00;;;19.40;64.30;;;;;;5081587;28;20035;-80
2023/04/24 09:50:14;;;;;;;0.20;0.20;;;19.80;63.30;;;;;;5081990;28;20036;-80
2023/04/24 09:52:41;;;;;;;0.10;0.10;;;18.20;67.20;;;;;;5081805;28;20035;-79
2023/04/24 09:55:19;;;;;;;0.05;0.05;;;20.40;68.10;;;;;;5078480;28;20024;-80
2023/04/24 09:57:57;;;;;;;0.20;0.20;;;21.60;61.10;;;;;;5080625;28;20131;-80
2023/04/24 10:00:30;;;;;;;0.00;0.00;;;22.10;58.10;;;;;;5081807;28;20115;-80
2023/04/24 10:03:00;;;;;;;0.20;0.20;;;22.30;59.80;;;;;;5081630;28;20778;-78
2023/04/24 10:05:34;;;;;;;0.10;0.10;;;22.10;60.00;;;;;;5073494;28;20105;-80
2023/04/24 10:08:06;;;;;;;0.20;0.20;;;23.30;59.50;;;;;;5079515;28;20119;-80
2023/04/24 10:10:34;;;;;;;0.22;0.22;;;24.20;57.30;;;;;;5080338;28;20031;-80
2023/04/24 10:13:01;;;;;;;0.10;0.10;;;21.90;58.60;;;;;;5076341;28;20055;-80
2023/04/24 10:15:27;;;;;;;1.85;1.13;;;22.10;56.20;;;;;;5081489;28;20033;-81
2023/04/24 10:17:53;;;;;;;0.43;0.43;;;22.10;59.20;;;;;;5081451;28;20039;-80
2023/04/24 10:20:24;;;;;;;0.00;0.00;;;21.90;58.70;;;;;;5079939;28;20036;-81
2023/04/24 10:22:52;;;;;;;0.10;0.10;;;21.30;57.80;;;;;;5085574;28;20689;-80
2023/04/24 10:25:23;;;;;;;0.13;0.13;;;21.60;60.10;;;;;;5085152;28;20020;-80
2023/04/24 10:27:50;;;;;;;0.00;0.00;;;19.90;60.70;;;;;;5085091;28;20034;-80
2023/04/24 10:30:17;;;;;;;0.22;0.22;;;20.80;60.80;;;;;;5084169;28;20551;-81
2023/04/24 10:32:43;;;;;;;0.13;0.13;;;20.40;63.40;;;;;;5096104;28;20028;-81
2023/04/24 10:35:11;;;;;;;0.47;0.47;;;20.20;61.30;;;;;;5094459;28;20120;-81
2023/04/24 10:37:40;;;;;;;1.88;0.88;;;19.80;61.80;;;;;;5084334;28;20059;-79
2023/04/24 10:40:08;;;;;;;0.15;0.15;;;20.00;61.00;;;;;;5084903;28;20077;-81
2023/04/24 10:42:35;;;;;;;0.10;0.10;;;19.60;62.10;;;;;;5084900;28;20032;-80
2023/04/24 10:45:05;;;;;;;0.10;0.10;;;19.20;65.00;;;;;;5095213;28;20111;-81
2023/04/24 10:47:41;;;;;;;0.00;0.00;;;19.60;63.90;;;;;;5084313;28;20031;-81
2023/04/24 10:50:12;;;;;;;0.03;0.03;;;19.70;63.30;;;;;;5084729;28;20024;-81
2023/04/24 10:52:50;;;;;;;0.10;0.10;;;19.20;64.10;;;;;;5093482;28;20020;-81
2023/04/24 10:55:16;;;;;;;0.10;0.10;;;18.00;63.30;;;;;;5084463;28;20031;-82
2023/04/24 10:58:04;;;;;;;0.60;0.60;;;18.40;65.30;;;;;;5083876;28;20030;-81
2023/04/24 11:00:30;;;;;;;0.00;0.00;;;19.20;61.60;;;;;;5099356;28;20069;-81
2023/04/24 11:02:57;;;;;;;0.00;0.00;;;19.70;58.80;;;;;;5093769;28;20032;-81
2023/04/24 11:06:01;;;;;;;0.40;0.40;;;19.80;60.40;;;;;;5097705;28;20028;-81
2023/04/24 11:08:42;;;;;;;0.00;0.00;;;19.50;62.60;;;;;;5081557;28;20039;-81
2023/04/24 11:11:18;;;;;;;0.00;0.00;;;18.90;67.80;;;;;;5091336;28;20123;-81
2023/04/24 11:13:55;;;;;;;0.20;0.20;;;18.90;66.40;;;;;;5078976;28;20574;-81
2023/04/24 11:16:41;;;;;;;0.00;0.00;;;18.70;63.40;;;;;;5084082;28;20028;-82
2023/04/24 11:19:18;;;;;;;0.10;0.10;;;18.60;64.20;;;;;;5088279;28;20036;-80
2023/04/24 11:22:02;;;;;;;0.10;0.10;;;18.00;64.90;;;;;;5087485;28;20587;-80
2023/04/24 11:24:48;;;;;;;0.00;0.00;;;18.10;65.40;;;;;;5083317;28;20054;-81
2023/04/24 11:27:21;;;;;;;0.17;0.17;;;17.70;65.00;;;;;;5086047;28;20067;-80
2023/04/24 11:29:55;;;;;;;0.28;0.28;;;17.90;65.90;;;;;;5092675;28;20817;-81
2023/04/24 11:32:26;;;;;;;0.00;0.00;;;18.40;66.60;;;;;;5100095;28;20039;-82
2023/04/24 11:35:03;;;;;;;0.82;0.50;;;18.40;67.60;;;;;;5090357;28;20054;-81
2023/04/24 11:37:41;;;;;;;0.08;0.08;;;18.90;67.50;;;;;;5083434;28;20067;-82
2023/04/24 11:40:10;;;;;;;0.00;0.00;;;18.90;68.00;;;;;;5084422;28;20158;-82
2023/04/24 11:42:37;;;;;;;0.00;0.00;;;19.20;64.00;;;;;;5083656;28;20123;-81
2023/04/24 11:45:09;;;;;;;0.20;0.20;;;18.90;63.20;;;;;;5080309;28;20187;-80
2023/04/24 11:47:35;;;;;;;0.00;0.00;;;18.60;63.30;;;;;;5083503;28;20742;-82
2023/04/24 11:50:01;;;;;;;0.00;0.00;;;18.30;66.00;;;;;;5082823;28;20038;-81
2023/04/24 11:52:27;;;;;;;0.45;0.45;;;19.20;64.90;;;;;;5083025;28;20100;-81
2023/04/24 11:54:53;;;;;;;;;;;19.00;65.50;;;;;;5083993;28;20035;-80
2023/04/24 11:57:20;;;;;;;0.20;0.20;;;19.00;65.60;;;;;;5082970;28;19959;-82
2023/04/24 11:59:46;;;;;;;0.75;0.40;;;18.90;64.70;;;;;;5083058;28;20024;-81
2023/04/24 12:02:30;;;;;;;0.00;0.00;;;18.70;65.30;;;;;;5083069;28;20036;-82
2023/04/24 12:04:56;;;;;;;0.10;0.10;;;18.30;66.30;;;;;;5076394;28;20036;-81
2023/04/24 12:07:24;;;;;;;0.10;0.10;;;18.00;64.10;;;;;;5083030;28;20038;-81
2023/04/24 12:09:59;;;;;;;17.63;0.47;;;18.20;63.00;;;;;;5081236;28;20028;-82
2023/04/24 12:12:26;;;;;;;0.38;0.38;;;19.10;65.70;;;;;;5081723;28;20020;-81
2023/04/24 12:14:58;;;;;;;0.00;0.00;;;20.10;66.60;;;;;;5083100;28;20029;-80
2023/04/24 12:17:32;;;;;;;0.10;0.10;;;20.00;63.60;;;;;;5082967;28;20098;-80
2023/04/24 12:20:06;;;;;;;0.52;0.30;;;19.50;61.50;;;;;;5077640;28;20113;-81
2023/04/24 12:22:50;;;;;;;0.70;0.65;;;19.10;62.90;;;;;;5082231;28;20016;-80
2023/04/24 12:25:18;;;;;;;0.08;0.08;;;19.00;63.00;;;;;;5082040;28;20110;-82
2023/04/24 12:27:45;;;;;;;1.08;0.75;;;18.60;62.30;;;;;;5083031;28;20028;-82
2023/04/24 12:30:15;;;;;;;0.10;0.10;;;18.70;65.40;;;;;;5081768;28;20054;-81
2023/04/24 12:32:48;;;;;;;0.10;0.10;;;18.90;63.20;;;;;;5094324;28;20089;-81
2023/04/24 12:35:20;;;;;;;0.10;0.10;;;18.90;59.20;;;;;;5092061;28;20048;-82
2023/04/24 12:37:47;;;;;;;0.08;0.08;;;18.70;63.40;;;;;;5091326;28;20044;-80
2023/04/24 12:40:13;;;;;;;0.10;0.10;;;18.90;63.80;;;;;;5085121;28;20035;-81
2023/04/24 12:42:49;;;;;;;2.60;0.70;;;19.20;65.60;;;;;;5090833;28;20030;-82
2023/04/24 12:45:16;;;;;;;0.47;0.47;;;18.90;65.70;;;;;;5094372;28;20063;-82
2023/04/24 12:47:44;;;;;;;0.30;0.30;;;18.10;66.10;;;;;;5092292;28;20032;-80
2023/04/24 12:50:12;;;;;;;0.20;0.20;;;18.80;66.70;;;;;;5084948;28;20081;-82